sensor_id;sensor_type;location;lat;lon;timestamp;P1;durP1;ratioP1;P2;durP2;ratioP2
3875;SDS011;1953;51.222;6.624;2023-05-02T00:01:28;56.10;;;35.07;;
3875;SDS011;1953;51.222;6.624;2023-05-02T00:06:11;56.30;;;34.67;;
3875;SDS011;1953;51.222;6.624;2023-05-02T00:11:19;57.57;;;35.50;;
3875;SDS011;1953;51.222;6.624;2023-05-02T00:16:02;61.47;;;34.30;;
3875;SDS011;1953;51.222;6.624;2023-05-02T00:20:45;66.87;;;37.00;;
3875;SDS011;1953;51.222;6.624;2023-05-02T00:25:28;68.87;;;36.17;;
3875;SDS011;1953;51.222;6.624;2023-05-02T00:30:12;64.67;;;36.90;;
3875;SDS011;1953;51.222;6.624;2023-05-02T00:34:55;68.90;;;37.17;;
3875;SDS011;1953;51.222;6.624;2023-05-02T00:39:38;64.57;;;36.13;;
3875;SDS011;1953;51.222;6.624;2023-05-02T00:44:20;67.33;;;36.40;;
3875;SDS011;1953;51.222;6.624;2023-05-02T00:49:04;69.13;;;39.57;;
3875;SDS011;1953;51.222;6.624;2023-05-02T00:53:47;66.37;;;36.77;;
3875;SDS011;1953;51.222;6.624;2023-05-02T00:58:30;79.33;;;39.10;;
3875;SDS011;1953;51.222;6.624;2023-05-02T01:03:16;75.47;;;39.50;;
3875;SDS011;1953;51.222;6.624;2023-05-02T01:08:07;76.90;;;37.57;;
3875;SDS011;1953;51.222;6.624;2023-05-02T01:12:57;74.27;;;37.63;;
3875;SDS011;1953;51.222;6.624;2023-05-02T01:17:43;82.20;;;40.60;;
3875;SDS011;1953;51.222;6.624;2023-05-02T01:22:27;81.67;;;39.00;;
3875;SDS011;1953;51.222;6.624;2023-05-02T01:27:14;74.77;;;37.97;;
3875;SDS011;1953;51.222;6.624;2023-05-02T01:32:04;75.03;;;37.40;;
3875;SDS011;1953;51.222;6.624;2023-05-02T01:36:49;74.83;;;37.63;;
3875;SDS011;1953;51.222;6.624;2023-05-02T01:41:32;74.00;;;36.40;;
3875;SDS011;1953;51.222;6.624;2023-05-02T01:46:17;73.30;;;35.67;;
3875;SDS011;1953;51.222;6.624;2023-05-02T01:51:02;75.00;;;38.70;;
3875;SDS011;1953;51.222;6.624;2023-05-02T01:55:47;78.40;;;36.80;;
3875;SDS011;1953;51.222;6.624;2023-05-02T02:00:30;75.10;;;36.73;;
3875;SDS011;1953;51.222;6.624;2023-05-02T02:05:14;68.13;;;34.90;;
3875;SDS011;1953;51.222;6.624;2023-05-02T02:10:00;71.17;;;35.33;;
3875;SDS011;1953;51.222;6.624;2023-05-02T02:14:45;71.77;;;35.03;;
3875;SDS011;1953;51.222;6.624;2023-05-02T02:19:31;79.13;;;36.33;;
3875;SDS011;1953;51.222;6.624;2023-05-02T02:24:15;70.17;;;34.57;;
3875;SDS011;1953;51.222;6.624;2023-05-02T02:29:03;65.63;;;32.97;;
3875;SDS011;1953;51.222;6.624;2023-05-02T02:33:46;63.40;;;31.57;;
3875;SDS011;1953;51.222;6.624;2023-05-02T02:38:30;61.63;;;32.07;;
3875;SDS011;1953;51.222;6.624;2023-05-02T02:43:19;60.27;;;31.50;;
3875;SDS011;1953;51.222;6.624;2023-05-02T02:48:13;63.50;;;31.13;;
3875;SDS011;1953;51.222;6.624;2023-05-02T02:53:02;56.13;;;29.17;;
3875;SDS011;1953;51.222;6.624;2023-05-02T02:57:46;59.97;;;29.73;;
3875;SDS011;1953;51.222;6.624;2023-05-02T03:02:36;56.53;;;28.37;;
3875;SDS011;1953;51.222;6.624;2023-05-02T03:07:23;58.90;;;28.20;;
3875;SDS011;1953;51.222;6.624;2023-05-02T03:12:08;52.07;;;25.77;;
3875;SDS011;1953;51.222;6.624;2023-05-02T03:16:51;54.90;;;26.07;;
3875;SDS011;1953;51.222;6.624;2023-05-02T03:21:33;50.20;;;24.73;;
3875;SDS011;1953;51.222;6.624;2023-05-02T03:26:19;50.17;;;24.50;;
3875;SDS011;1953;51.222;6.624;2023-05-02T03:31:01;48.43;;;23.33;;
3875;SDS011;1953;51.222;6.624;2023-05-02T03:35:44;46.80;;;23.70;;
3875;SDS011;1953;51.222;6.624;2023-05-02T03:40:26;49.10;;;23.53;;
3875;SDS011;1953;51.222;6.624;2023-05-02T03:45:11;49.03;;;24.73;;
3875;SDS011;1953;51.222;6.624;2023-05-02T03:49:53;54.70;;;24.90;;
3875;SDS011;1953;51.222;6.624;2023-05-02T03:54:36;48.77;;;23.40;;
3875;SDS011;1953;51.222;6.624;2023-05-02T03:59:19;49.03;;;23.70;;
3875;SDS011;1953;51.222;6.624;2023-05-02T04:04:03;47.37;;;23.20;;
3875;SDS011;1953;51.222;6.624;2023-05-02T04:08:46;49.97;;;23.87;;
3875;SDS011;1953;51.222;6.624;2023-05-02T04:13:28;54.13;;;23.97;;
3875;SDS011;1953;51.222;6.624;2023-05-02T04:18:11;49.73;;;21.77;;
3875;SDS011;1953;51.222;6.624;2023-05-02T04:22:55;44.77;;;21.80;;
3875;SDS011;1953;51.222;6.624;2023-05-02T04:27:38;48.50;;;22.67;;
3875;SDS011;1953;51.222;6.624;2023-05-02T04:32:20;45.50;;;21.20;;
3875;SDS011;1953;51.222;6.624;2023-05-02T04:37:03;43.23;;;23.07;;
3875;SDS011;1953;51.222;6.624;2023-05-02T04:41:47;41.40;;;22.70;;
3875;SDS011;1953;51.222;6.624;2023-05-02T04:46:29;44.70;;;23.50;;
3875;SDS011;1953;51.222;6.624;2023-05-02T04:51:12;44.33;;;22.50;;
3875;SDS011;1953;51.222;6.624;2023-05-02T04:55:55;42.83;;;23.30;;
3875;SDS011;1953;51.222;6.624;2023-05-02T05:00:39;47.00;;;24.27;;
3875;SDS011;1953;51.222;6.624;2023-05-02T05:05:21;53.97;;;25.40;;
3875;SDS011;1953;51.222;6.624;2023-05-02T05:10:04;48.50;;;22.43;;
3875;SDS011;1953;51.222;6.624;2023-05-02T05:14:50;50.33;;;24.67;;
3875;SDS011;1953;51.222;6.624;2023-05-02T05:19:34;47.83;;;24.00;;
3875;SDS011;1953;51.222;6.624;2023-05-02T05:24:17;41.70;;;22.40;;
3875;SDS011;1953;51.222;6.624;2023-05-02T05:28:59;49.37;;;23.37;;
3875;SDS011;1953;51.222;6.624;2023-05-02T05:33:42;52.57;;;23.30;;
3875;SDS011;1953;51.222;6.624;2023-05-02T05:38:26;50.43;;;23.67;;
3875;SDS011;1953;51.222;6.624;2023-05-02T05:43:09;45.50;;;24.60;;
3875;SDS011;1953;51.222;6.624;2023-05-02T05:47:52;49.80;;;24.17;;
3875;SDS011;1953;51.222;6.624;2023-05-02T05:52:35;48.63;;;23.07;;
3875;SDS011;1953;51.222;6.624;2023-05-02T05:57:19;48.77;;;22.23;;
3875;SDS011;1953;51.222;6.624;2023-05-02T06:02:02;38.13;;;19.90;;
3875;SDS011;1953;51.222;6.624;2023-05-02T06:06:45;37.37;;;16.57;;
3875;SDS011;1953;51.222;6.624;2023-05-02T06:11:27;27.10;;;14.40;;
3875;SDS011;1953;51.222;6.624;2023-05-02T06:16:11;21.50;;;11.37;;
3875;SDS011;1953;51.222;6.624;2023-05-02T06:20:53;19.93;;;10.03;;
3875;SDS011;1953;51.222;6.624;2023-05-02T06:25:36;15.67;;;9.00;;
3875;SDS011;1953;51.222;6.624;2023-05-02T06:30:19;15.90;;;8.80;;
3875;SDS011;1953;51.222;6.624;2023-05-02T06:35:03;14.60;;;8.17;;
3875;SDS011;1953;51.222;6.624;2023-05-02T06:39:46;19.90;;;9.57;;
3875;SDS011;1953;51.222;6.624;2023-05-02T06:44:29;18.20;;;8.30;;
3875;SDS011;1953;51.222;6.624;2023-05-02T06:49:11;15.43;;;8.40;;
3875;SDS011;1953;51.222;6.624;2023-05-02T06:53:55;10.30;;;6.37;;
3875;SDS011;1953;51.222;6.624;2023-05-02T06:58:37;11.87;;;6.77;;
3875;SDS011;1953;51.222;6.624;2023-05-02T07:03:20;15.33;;;7.60;;
3875;SDS011;1953;51.222;6.624;2023-05-02T07:08:03;11.07;;;6.57;;
3875;SDS011;1953;51.222;6.624;2023-05-02T07:12:47;11.10;;;6.77;;
3875;SDS011;1953;51.222;6.624;2023-05-02T07:17:30;12.00;;;6.97;;
3875;SDS011;1953;51.222;6.624;2023-05-02T07:22:12;10.00;;;6.30;;
3875;SDS011;1953;51.222;6.624;2023-05-02T07:26:56;9.40;;;6.10;;
3875;SDS011;1953;51.222;6.624;2023-05-02T07:31:39;10.73;;;6.40;;
3875;SDS011;1953;51.222;6.624;2023-05-02T07:36:22;12.33;;;5.80;;
3875;SDS011;1953;51.222;6.624;2023-05-02T07:41:05;8.73;;;5.93;;
3875;SDS011;1953;51.222;6.624;2023-05-02T07:45:47;11.17;;;5.93;;
3875;SDS011;1953;51.222;6.624;2023-05-02T07:50:31;8.43;;;5.60;;
3875;SDS011;1953;51.222;6.624;2023-05-02T07:55:14;9.70;;;3.20;;
3875;SDS011;1953;51.222;6.624;2023-05-02T07:59:56;6.37;;;3.70;;
3875;SDS011;1953;51.222;6.624;2023-05-02T08:04:39;7.93;;;3.93;;
3875;SDS011;1953;51.222;6.624;2023-05-02T08:09:23;8.60;;;4.07;;
3875;SDS011;1953;51.222;6.624;2023-05-02T08:14:06;7.73;;;4.03;;
3875;SDS011;1953;51.222;6.624;2023-05-02T08:18:48;6.73;;;3.93;;
3875;SDS011;1953;51.222;6.624;2023-05-02T08:23:31;12.87;;;4.67;;
3875;SDS011;1953;51.222;6.624;2023-05-02T08:28:15;11.27;;;4.33;;
3875;SDS011;1953;51.222;6.624;2023-05-02T08:32:58;6.20;;;3.80;;
3875;SDS011;1953;51.222;6.624;2023-05-02T08:37:40;16.20;;;4.70;;
3875;SDS011;1953;51.222;6.624;2023-05-02T08:42:23;9.90;;;4.57;;
3875;SDS011;1953;51.222;6.624;2023-05-02T08:47:10;9.47;;;5.03;;
3875;SDS011;1953;51.222;6.624;2023-05-02T08:51:55;12.20;;;4.73;;
3875;SDS011;1953;51.222;6.624;2023-05-02T08:56:39;11.97;;;5.17;;
3875;SDS011;1953;51.222;6.624;2023-05-02T09:01:22;9.07;;;4.10;;
3875;SDS011;1953;51.222;6.624;2023-05-02T09:06:11;10.53;;;4.50;;
3875;SDS011;1953;51.222;6.624;2023-05-02T09:10:54;10.47;;;4.80;;
3875;SDS011;1953;51.222;6.624;2023-05-02T09:15:38;12.60;;;3.83;;
3875;SDS011;1953;51.222;6.624;2023-05-02T09:20:21;9.27;;;4.00;;
3875;SDS011;1953;51.222;6.624;2023-05-02T09:25:05;6.50;;;3.93;;
3875;SDS011;1953;51.222;6.624;2023-05-02T09:29:48;12.23;;;5.47;;
3875;SDS011;1953;51.222;6.624;2023-05-02T09:34:32;10.47;;;6.37;;
3875;SDS011;1953;51.222;6.624;2023-05-02T09:39:18;15.43;;;4.93;;
3875;SDS011;1953;51.222;6.624;2023-05-02T09:44:04;11.57;;;5.23;;
3875;SDS011;1953;51.222;6.624;2023-05-02T09:48:52;9.50;;;4.60;;
3875;SDS011;1953;51.222;6.624;2023-05-02T09:53:36;12.30;;;5.20;;
3875;SDS011;1953;51.222;6.624;2023-05-02T09:58:25;14.80;;;5.43;;
3875;SDS011;1953;51.222;6.624;2023-05-02T10:03:09;9.90;;;5.63;;
3875;SDS011;1953;51.222;6.624;2023-05-02T10:07:52;9.00;;;4.77;;
3875;SDS011;1953;51.222;6.624;2023-05-02T10:12:35;7.60;;;4.50;;
3875;SDS011;1953;51.222;6.624;2023-05-02T10:17:21;9.83;;;4.80;;
3875;SDS011;1953;51.222;6.624;2023-05-02T10:22:09;19.23;;;6.77;;
3875;SDS011;1953;51.222;6.624;2023-05-02T10:26:53;10.30;;;5.60;;
3875;SDS011;1953;51.222;6.624;2023-05-02T10:31:36;9.83;;;5.23;;
3875;SDS011;1953;51.222;6.624;2023-05-02T10:36:20;14.70;;;5.63;;
3875;SDS011;1953;51.222;6.624;2023-05-02T10:41:05;12.03;;;5.67;;
3875;SDS011;1953;51.222;6.624;2023-05-02T10:45:53;12.50;;;6.07;;
3875;SDS011;1953;51.222;6.624;2023-05-02T10:50:42;14.27;;;5.10;;
3875;SDS011;1953;51.222;6.624;2023-05-02T10:55:27;17.47;;;5.50;;
3875;SDS011;1953;51.222;6.624;2023-05-02T11:00:21;9.50;;;5.07;;
3875;SDS011;1953;51.222;6.624;2023-05-02T11:05:05;8.60;;;5.57;;
3875;SDS011;1953;51.222;6.624;2023-05-02T11:09:48;7.50;;;5.73;;
3875;SDS011;1953;51.222;6.624;2023-05-02T11:25:07;9.87;;;4.80;;
3875;SDS011;1953;51.222;6.624;2023-05-02T11:30:10;9.83;;;5.00;;
3875;SDS011;1953;51.222;6.624;2023-05-02T11:34:53;10.03;;;5.13;;
3875;SDS011;1953;51.222;6.624;2023-05-02T11:39:36;13.70;;;5.37;;
3875;SDS011;1953;51.222;6.624;2023-05-02T11:44:20;10.70;;;4.67;;
3875;SDS011;1953;51.222;6.624;2023-05-02T11:49:02;10.60;;;5.27;;
3875;SDS011;1953;51.222;6.624;2023-05-02T11:53:45;13.80;;;5.13;;
3875;SDS011;1953;51.222;6.624;2023-05-02T11:58:28;9.03;;;4.77;;
3875;SDS011;1953;51.222;6.624;2023-05-02T12:03:29;6.97;;;4.20;;
3875;SDS011;1953;51.222;6.624;2023-05-02T12:12:20;7.00;;;4.97;;
3875;SDS011;1953;51.222;6.624;2023-05-02T12:17:02;8.00;;;4.80;;
3875;SDS011;1953;51.222;6.624;2023-05-02T12:21:46;7.00;;;4.67;;
3875;SDS011;1953;51.222;6.624;2023-05-02T12:26:29;8.33;;;4.83;;
3875;SDS011;1953;51.222;6.624;2023-05-02T12:31:14;8.87;;;5.20;;
3875;SDS011;1953;51.222;6.624;2023-05-02T12:36:04;12.57;;;5.17;;
3875;SDS011;1953;51.222;6.624;2023-05-02T12:40:48;10.30;;;5.17;;
3875;SDS011;1953;51.222;6.624;2023-05-02T12:45:32;7.93;;;4.80;;
3875;SDS011;1953;51.222;6.624;2023-05-02T12:50:17;6.70;;;4.60;;
3875;SDS011;1953;51.222;6.624;2023-05-02T12:55:13;9.70;;;5.00;;
3875;SDS011;1953;51.222;6.624;2023-05-02T12:59:56;5.33;;;4.80;;
3875;SDS011;1953;51.222;6.624;2023-05-02T13:04:39;10.67;;;5.43;;
3875;SDS011;1953;51.222;6.624;2023-05-02T13:09:23;7.27;;;5.30;;
3875;SDS011;1953;51.222;6.624;2023-05-02T13:14:06;6.97;;;4.10;;
3875;SDS011;1953;51.222;6.624;2023-05-02T13:18:48;5.50;;;4.10;;
3875;SDS011;1953;51.222;6.624;2023-05-02T13:23:31;8.07;;;4.40;;
3875;SDS011;1953;51.222;6.624;2023-05-02T13:28:15;4.13;;;3.73;;
3875;SDS011;1953;51.222;6.624;2023-05-02T13:32:57;5.47;;;4.10;;
3875;SDS011;1953;51.222;6.624;2023-05-02T13:37:40;4.70;;;3.77;;
3875;SDS011;1953;51.222;6.624;2023-05-02T13:42:23;4.73;;;4.30;;
3875;SDS011;1953;51.222;6.624;2023-05-02T13:47:06;9.40;;;4.03;;
3875;SDS011;1953;51.222;6.624;2023-05-02T13:51:49;5.93;;;3.87;;
3875;SDS011;1953;51.222;6.624;2023-05-02T13:56:32;6.60;;;4.60;;
3875;SDS011;1953;51.222;6.624;2023-05-02T14:01:14;15.83;;;3.80;;
3875;SDS011;1953;51.222;6.624;2023-05-02T14:05:58;5.43;;;4.00;;
3875;SDS011;1953;51.222;6.624;2023-05-02T14:10:41;6.07;;;4.97;;
3875;SDS011;1953;51.222;6.624;2023-05-02T14:15:23;10.63;;;5.57;;
3875;SDS011;1953;51.222;6.624;2023-05-02T14:20:07;5.37;;;4.80;;
3875;SDS011;1953;51.222;6.624;2023-05-02T14:24:52;8.77;;;4.97;;
3875;SDS011;1953;51.222;6.624;2023-05-02T14:29:34;9.00;;;5.20;;
3875;SDS011;1953;51.222;6.624;2023-05-02T14:34:17;6.43;;;4.90;;
3875;SDS011;1953;51.222;6.624;2023-05-02T14:39:01;7.97;;;6.10;;
3875;SDS011;1953;51.222;6.624;2023-05-02T14:43:45;8.17;;;5.27;;
3875;SDS011;1953;51.222;6.624;2023-05-02T14:48:28;6.77;;;5.40;;
3875;SDS011;1953;51.222;6.624;2023-05-02T14:53:10;9.00;;;5.53;;
3875;SDS011;1953;51.222;6.624;2023-05-02T14:57:53;10.00;;;4.50;;
3875;SDS011;1953;51.222;6.624;2023-05-02T15:02:38;7.20;;;5.33;;
3875;SDS011;1953;51.222;6.624;2023-05-02T15:07:21;8.90;;;5.20;;
3875;SDS011;1953;51.222;6.624;2023-05-02T15:12:03;9.37;;;5.60;;
3875;SDS011;1953;51.222;6.624;2023-05-02T15:16:46;6.90;;;5.20;;
3875;SDS011;1953;51.222;6.624;2023-05-02T15:21:30;6.07;;;5.10;;
3875;SDS011;1953;51.222;6.624;2023-05-02T15:26:12;7.60;;;5.60;;
3875;SDS011;1953;51.222;6.624;2023-05-02T15:30:55;9.40;;;5.63;;
3875;SDS011;1953;51.222;6.624;2023-05-02T15:35:37;6.63;;;5.63;;
3875;SDS011;1953;51.222;6.624;2023-05-02T15:40:21;9.33;;;6.23;;
3875;SDS011;1953;51.222;6.624;2023-05-02T15:45:06;8.93;;;5.40;;
3875;SDS011;1953;51.222;6.624;2023-05-02T15:49:49;7.87;;;5.03;;
3875;SDS011;1953;51.222;6.624;2023-05-02T15:54:33;6.57;;;5.60;;
3875;SDS011;1953;51.222;6.624;2023-05-02T15:59:18;10.10;;;5.87;;
3875;SDS011;1953;51.222;6.624;2023-05-02T16:04:00;10.50;;;6.00;;
3875;SDS011;1953;51.222;6.624;2023-05-02T16:08:45;7.50;;;5.80;;
3875;SDS011;1953;51.222;6.624;2023-05-02T16:13:28;8.83;;;5.43;;
3875;SDS011;1953;51.222;6.624;2023-05-02T16:18:12;7.83;;;5.53;;
3875;SDS011;1953;51.222;6.624;2023-05-02T16:22:54;8.63;;;5.33;;
3875;SDS011;1953;51.222;6.624;2023-05-02T16:27:37;8.70;;;5.37;;
3875;SDS011;1953;51.222;6.624;2023-05-02T16:32:19;8.77;;;5.83;;
3875;SDS011;1953;51.222;6.624;2023-05-02T16:37:04;5.60;;;5.00;;
3875;SDS011;1953;51.222;6.624;2023-05-02T16:41:47;8.20;;;5.30;;
3875;SDS011;1953;51.222;6.624;2023-05-02T16:46:29;9.40;;;5.73;;
3875;SDS011;1953;51.222;6.624;2023-05-02T16:51:12;8.87;;;5.93;;
3875;SDS011;1953;51.222;6.624;2023-05-02T16:55:56;12.53;;;6.03;;
3875;SDS011;1953;51.222;6.624;2023-05-02T17:00:39;8.97;;;6.37;;
3875;SDS011;1953;51.222;6.624;2023-05-02T17:05:21;11.50;;;6.23;;
3875;SDS011;1953;51.222;6.624;2023-05-02T17:10:04;8.33;;;6.00;;
3875;SDS011;1953;51.222;6.624;2023-05-02T17:14:49;16.23;;;7.50;;
3875;SDS011;1953;51.222;6.624;2023-05-02T17:19:31;7.37;;;5.87;;
3875;SDS011;1953;51.222;6.624;2023-05-02T17:24:14;10.37;;;6.37;;
3875;SDS011;1953;51.222;6.624;2023-05-02T17:28:56;9.17;;;6.00;;
3875;SDS011;1953;51.222;6.624;2023-05-02T17:33:40;8.47;;;5.80;;
3875;SDS011;1953;51.222;6.624;2023-05-02T17:38:23;11.47;;;6.50;;
3875;SDS011;1953;51.222;6.624;2023-05-02T17:43:06;11.63;;;6.00;;
3875;SDS011;1953;51.222;6.624;2023-05-02T17:47:49;10.97;;;6.23;;
3875;SDS011;1953;51.222;6.624;2023-05-02T17:52:33;11.27;;;6.40;;
3875;SDS011;1953;51.222;6.624;2023-05-02T17:57:15;11.30;;;5.97;;
3875;SDS011;1953;51.222;6.624;2023-05-02T18:01:59;14.40;;;6.27;;
3875;SDS011;1953;51.222;6.624;2023-05-02T18:06:41;18.03;;;6.70;;
3875;SDS011;1953;51.222;6.624;2023-05-02T18:11:25;8.77;;;5.70;;
3875;SDS011;1953;51.222;6.624;2023-05-02T18:16:08;7.60;;;6.00;;
3875;SDS011;1953;51.222;6.624;2023-05-02T18:20:51;8.63;;;6.07;;
3875;SDS011;1953;51.222;6.624;2023-05-02T18:25:35;9.20;;;6.47;;
3875;SDS011;1953;51.222;6.624;2023-05-02T18:30:20;10.20;;;6.37;;
3875;SDS011;1953;51.222;6.624;2023-05-02T18:35:06;10.27;;;7.00;;
3875;SDS011;1953;51.222;6.624;2023-05-02T18:39:50;14.33;;;7.57;;
3875;SDS011;1953;51.222;6.624;2023-05-02T18:44:33;13.60;;;6.50;;
3875;SDS011;1953;51.222;6.624;2023-05-02T18:49:19;18.37;;;6.67;;
3875;SDS011;1953;51.222;6.624;2023-05-02T18:54:02;10.10;;;6.70;;
3875;SDS011;1953;51.222;6.624;2023-05-02T18:58:45;19.00;;;7.27;;
3875;SDS011;1953;51.222;6.624;2023-05-02T19:03:28;17.50;;;6.50;;
3875;SDS011;1953;51.222;6.624;2023-05-02T19:08:12;12.80;;;6.70;;
3875;SDS011;1953;51.222;6.624;2023-05-02T19:12:55;16.77;;;6.73;;
3875;SDS011;1953;51.222;6.624;2023-05-02T19:17:38;12.37;;;6.70;;
3875;SDS011;1953;51.222;6.624;2023-05-02T19:22:21;13.53;;;7.20;;
3875;SDS011;1953;51.222;6.624;2023-05-02T19:27:05;15.73;;;6.83;;
3875;SDS011;1953;51.222;6.624;2023-05-02T19:31:49;9.93;;;6.10;;
3875;SDS011;1953;51.222;6.624;2023-05-02T19:36:31;11.23;;;6.80;;
3875;SDS011;1953;51.222;6.624;2023-05-02T19:41:14;14.47;;;6.80;;
3875;SDS011;1953;51.222;6.624;2023-05-02T19:45:58;9.70;;;6.47;;
3875;SDS011;1953;51.222;6.624;2023-05-02T19:50:40;12.90;;;6.77;;
3875;SDS011;1953;51.222;6.624;2023-05-02T19:55:23;12.37;;;6.90;;
3875;SDS011;1953;51.222;6.624;2023-05-02T20:00:06;15.07;;;6.20;;
3875;SDS011;1953;51.222;6.624;2023-05-02T20:04:51;13.90;;;6.60;;
3875;SDS011;1953;51.222;6.624;2023-05-02T20:09:34;16.37;;;6.20;;
3875;SDS011;1953;51.222;6.624;2023-05-02T20:14:17;13.07;;;5.80;;
3875;SDS011;1953;51.222;6.624;2023-05-02T20:19:00;11.80;;;6.50;;
3875;SDS011;1953;51.222;6.624;2023-05-02T20:23:45;13.73;;;7.27;;
3875;SDS011;1953;51.222;6.624;2023-05-02T20:28:27;11.93;;;6.50;;
3875;SDS011;1953;51.222;6.624;2023-05-02T20:33:10;19.57;;;7.97;;
3875;SDS011;1953;51.222;6.624;2023-05-02T20:37:53;19.47;;;7.70;;
3875;SDS011;1953;51.222;6.624;2023-05-02T20:42:36;13.20;;;7.20;;
3875;SDS011;1953;51.222;6.624;2023-05-02T20:47:22;18.23;;;8.43;;
3875;SDS011;1953;51.222;6.624;2023-05-02T20:52:06;13.83;;;8.30;;
3875;SDS011;1953;51.222;6.624;2023-05-02T20:56:48;10.27;;;7.33;;
3875;SDS011;1953;51.222;6.624;2023-05-02T21:01:32;12.47;;;7.27;;
3875;SDS011;1953;51.222;6.624;2023-05-02T21:06:16;12.20;;;7.60;;
3875;SDS011;1953;51.222;6.624;2023-05-02T21:11:00;18.63;;;7.40;;
3875;SDS011;1953;51.222;6.624;2023-05-02T21:15:42;22.80;;;7.47;;
3875;SDS011;1953;51.222;6.624;2023-05-02T21:20:26;13.73;;;6.90;;
3875;SDS011;1953;51.222;6.624;2023-05-02T21:25:09;13.23;;;6.60;;
3875;SDS011;1953;51.222;6.624;2023-05-02T21:29:52;10.60;;;6.73;;
3875;SDS011;1953;51.222;6.624;2023-05-02T21:34:35;16.63;;;6.80;;
3875;SDS011;1953;51.222;6.624;2023-05-02T21:39:19;11.17;;;7.00;;
3875;SDS011;1953;51.222;6.624;2023-05-02T21:44:01;14.63;;;6.70;;
3875;SDS011;1953;51.222;6.624;2023-05-02T21:48:44;11.23;;;6.67;;
3875;SDS011;1953;51.222;6.624;2023-05-02T21:53:26;11.57;;;6.70;;
3875;SDS011;1953;51.222;6.624;2023-05-02T21:58:10;11.37;;;6.67;;
3875;SDS011;1953;51.222;6.624;2023-05-02T22:02:53;12.80;;;7.20;;
3875;SDS011;1953;51.222;6.624;2023-05-02T22:07:36;14.03;;;7.00;;
3875;SDS011;1953;51.222;6.624;2023-05-02T22:12:18;16.00;;;6.50;;
3875;SDS011;1953;51.222;6.624;2023-05-02T22:17:04;14.40;;;7.10;;
3875;SDS011;1953;51.222;6.624;2023-05-02T22:21:47;13.83;;;6.60;;
3875;SDS011;1953;51.222;6.624;2023-05-02T22:26:30;14.53;;;7.40;;
3875;SDS011;1953;51.222;6.624;2023-05-02T22:31:13;12.23;;;7.13;;
3875;SDS011;1953;51.222;6.624;2023-05-02T22:35:57;10.10;;;6.93;;
3875;SDS011;1953;51.222;6.624;2023-05-02T22:40:40;13.80;;;6.90;;
3875;SDS011;1953;51.222;6.624;2023-05-02T22:45:22;10.57;;;6.83;;
3875;SDS011;1953;51.222;6.624;2023-05-02T22:50:06;9.00;;;6.20;;
3875;SDS011;1953;51.222;6.624;2023-05-02T22:54:52;9.80;;;6.37;;
3875;SDS011;1953;51.222;6.624;2023-05-02T22:59:34;9.60;;;6.63;;
3875;SDS011;1953;51.222;6.624;2023-05-02T23:04:17;10.77;;;6.70;;
3875;SDS011;1953;51.222;6.624;2023-05-02T23:08:59;11.67;;;7.13;;
3875;SDS011;1953;51.222;6.624;2023-05-02T23:13:43;12.73;;;6.73;;
3875;SDS011;1953;51.222;6.624;2023-05-02T23:18:26;12.07;;;7.27;;
3875;SDS011;1953;51.222;6.624;2023-05-02T23:23:08;9.20;;;7.03;;
3875;SDS011;1953;51.222;6.624;2023-05-02T23:27:51;11.97;;;6.90;;
3875;SDS011;1953;51.222;6.624;2023-05-02T23:32:36;12.57;;;7.40;;
3875;SDS011;1953;51.222;6.624;2023-05-02T23:37:19;11.40;;;8.13;;
3875;SDS011;1953;51.222;6.624;2023-05-02T23:42:02;11.10;;;6.87;;
3875;SDS011;1953;51.222;6.624;2023-05-02T23:46:44;10.30;;;7.30;;
3875;SDS011;1953;51.222;6.624;2023-05-02T23:51:28;15.47;;;6.90;;
3875;SDS011;1953;51.222;6.624;2023-05-02T23:56:11;16.57;;;7.37;;
